createdAt,value
2024-04-08T00:02:12.928Z,1.70
2024-04-08T00:04:39.635Z,0.98
2024-04-08T00:07:06.221Z,1.20
2024-04-08T00:09:32.784Z,0.82
2024-04-08T00:11:59.343Z,0.90
2024-04-08T00:14:26.026Z,0.90
2024-04-08T00:16:52.979Z,1.10
2024-04-08T00:19:19.534Z,1.45
2024-04-08T00:21:46.080Z,1.25
2024-04-08T00:24:12.717Z,1.40
2024-04-08T00:26:39.354Z,1.15
2024-04-08T00:29:05.962Z,1.10
2024-04-08T00:31:33.060Z,1.50
2024-04-08T00:33:59.686Z,1.35
2024-04-08T00:36:26.250Z,1.30
2024-04-08T00:38:52.805Z,1.40
2024-04-08T00:41:19.414Z,1.52
2024-04-08T00:43:46.066Z,1.05
2024-04-08T00:46:24.109Z,1.50
2024-04-08T00:48:56.087Z,0.80
2024-04-08T00:51:24.115Z,1.42
2024-04-08T00:53:51.063Z,1.42
2024-04-08T00:56:20.201Z,1.30
2024-04-08T00:58:50.175Z,1.35
2024-04-08T01:01:18.623Z,1.40
2024-04-08T01:03:46.565Z,1.40
2024-04-08T01:06:13.870Z,1.85
2024-04-08T01:08:41.843Z,1.80
2024-04-08T01:11:09.808Z,1.73
2024-04-08T01:13:36.551Z,1.30
2024-04-08T01:16:03.258Z,1.27
2024-04-08T01:18:29.982Z,1.67
2024-04-08T01:20:56.528Z,1.20
2024-04-08T01:23:26.088Z,1.50
2024-04-08T01:25:52.650Z,1.40
2024-04-08T01:28:22.280Z,1.75
2024-04-08T01:30:51.172Z,1.92
2024-04-08T01:33:18.065Z,1.33
2024-04-08T01:35:44.800Z,1.23
2024-04-08T01:38:11.378Z,1.63
2024-04-08T01:40:37.956Z,1.42
2024-04-08T01:43:04.670Z,1.77
2024-04-08T01:45:31.438Z,1.70
2024-04-08T01:47:58.204Z,1.50
2024-04-08T01:50:24.840Z,1.50
2024-04-08T01:52:51.422Z,1.42
2024-04-08T01:55:17.986Z,1.70
2024-04-08T01:57:45.361Z,2.03
2024-04-08T02:00:12.053Z,1.88
2024-04-08T02:02:38.678Z,2.80
2024-04-08T02:05:05.452Z,1.95
2024-04-08T02:07:32.013Z,1.85
2024-04-08T02:09:59.435Z,1.95
2024-04-08T02:12:27.951Z,1.75
2024-04-08T02:14:54.517Z,1.60
2024-04-08T02:17:21.086Z,2.30
2024-04-08T02:19:47.668Z,2.05
2024-04-08T02:22:14.222Z,2.22
2024-04-08T02:24:40.874Z,2.15
2024-04-08T02:27:09.842Z,2.22
2024-04-08T02:32:05.874Z,2.17
2024-04-08T02:34:32.702Z,1.60
2024-04-08T02:36:59.242Z,1.92
2024-04-08T02:39:25.862Z,1.95
2024-04-08T02:41:52.560Z,2.03
2024-04-08T02:44:19.346Z,1.80
2024-04-08T02:46:45.918Z,1.70
2024-04-08T02:49:12.507Z,2.08
2024-04-08T02:51:39.072Z,1.63
2024-04-08T02:54:05.808Z,2.38
2024-04-08T02:56:33.607Z,2.15
2024-04-08T02:59:00.236Z,1.45
2024-04-08T03:01:26.771Z,1.52
2024-04-08T03:03:54.948Z,2.35
2024-04-08T03:06:21.497Z,2.50
2024-04-08T03:08:48.182Z,2.20
2024-04-08T03:11:14.932Z,2.17
2024-04-08T03:13:41.809Z,2.15
2024-04-08T03:16:08.950Z,1.90
2024-04-08T03:18:35.599Z,2.30
2024-04-08T03:21:04.533Z,1.80
2024-04-08T03:23:31.508Z,2.70
2024-04-08T03:26:02.615Z,2.22
2024-04-08T03:28:30.084Z,1.92
2024-04-08T03:30:57.717Z,1.73
2024-04-08T03:33:30.108Z,1.98
2024-04-08T03:35:57.251Z,2.45
2024-04-08T03:38:23.919Z,2.42
2024-04-08T03:41:01.330Z,2.40
2024-04-08T03:43:29.003Z,1.77
2024-04-08T03:45:56.497Z,2.45
2024-04-08T03:48:23.129Z,2.03
2024-04-08T03:50:49.901Z,2.17
2024-04-08T03:53:16.947Z,1.73
2024-04-08T03:55:43.579Z,2.10
2024-04-08T03:58:10.144Z,1.90
2024-04-08T04:00:36.792Z,2.20
2024-04-08T04:03:08.922Z,2.17
2024-04-08T04:05:37.137Z,2.50
2024-04-08T04:08:04.057Z,1.58
2024-04-08T04:10:30.694Z,1.98
2024-04-08T04:12:57.273Z,2.60
2024-04-08T04:15:23.886Z,2.15
2024-04-08T04:17:50.569Z,2.05
2024-04-08T04:20:20.386Z,1.85
2024-04-08T04:22:48.006Z,2.10
2024-04-08T04:25:16.939Z,2.42
2024-04-08T04:30:10.409Z,2.47
2024-04-08T04:32:37.129Z,2.25
2024-04-08T04:35:03.965Z,2.75
2024-04-08T04:37:30.543Z,2.45
2024-04-08T04:39:57.192Z,2.08
2024-04-08T04:42:23.756Z,2.38
2024-04-08T04:44:51.958Z,1.98
2024-04-08T04:47:18.732Z,2.15
2024-04-08T04:49:45.369Z,2.03
2024-04-08T04:52:13.526Z,2.05
2024-04-08T04:54:40.723Z,1.70
2024-04-08T04:57:07.279Z,1.98
2024-04-08T04:59:33.867Z,1.77
2024-04-08T05:02:00.800Z,2.08
2024-04-08T05:04:27.405Z,1.70
2024-04-08T05:06:54.100Z,2.22
2024-04-08T05:09:20.680Z,2.10
2024-04-08T05:11:47.320Z,1.48
2024-04-08T05:14:13.948Z,1.73
2024-04-08T05:16:40.562Z,2.13
2024-04-08T05:19:07.143Z,2.00
2024-04-08T05:21:33.724Z,1.70
2024-04-08T05:24:00.793Z,2.35
2024-04-08T05:26:30.886Z,2.50
2024-04-08T05:28:57.669Z,2.05
2024-04-08T05:31:24.272Z,1.83
2024-04-08T05:33:51.231Z,2.40
2024-04-08T05:36:33.836Z,1.83
2024-04-08T05:39:01.604Z,1.98
2024-04-08T05:41:34.525Z,2.25
2024-04-08T05:44:01.403Z,2.50
2024-04-08T05:46:31.244Z,2.10
2024-04-08T05:48:57.810Z,2.38
2024-04-08T05:51:29.698Z,2.22
2024-04-08T05:53:56.510Z,1.95
2024-04-08T05:58:53.248Z,2.30
2024-04-08T06:01:19.870Z,2.55
2024-04-08T06:03:46.735Z,2.90
2024-04-08T06:09:10.563Z,2.95
2024-04-08T06:11:37.299Z,2.40
2024-04-08T06:14:03.978Z,2.53
2024-04-08T06:16:33.430Z,2.25
2024-04-08T06:19:01.624Z,2.40
2024-04-08T06:21:28.478Z,2.90
2024-04-08T06:26:37.299Z,2.72
2024-04-08T06:29:04.061Z,3.65
2024-04-08T06:31:31.078Z,3.20
2024-04-08T06:33:57.835Z,2.78
2024-04-08T06:36:24.487Z,2.80
2024-04-08T06:39:04.070Z,3.20
2024-04-08T06:41:30.826Z,3.67
2024-04-08T06:43:57.485Z,3.30
2024-04-08T06:46:24.346Z,3.60
2024-04-08T06:48:50.952Z,3.97
2024-04-08T06:51:17.575Z,3.15
2024-04-08T06:53:44.346Z,3.28
2024-04-08T06:56:12.457Z,3.30
2024-04-08T06:58:39.172Z,3.40
2024-04-08T07:01:05.848Z,3.20
2024-04-08T07:03:35.662Z,3.70
2024-04-08T07:06:02.445Z,4.00
2024-04-08T07:08:29.325Z,3.40
2024-04-08T07:10:56.005Z,4.72
2024-04-08T07:13:23.776Z,4.40
2024-04-08T07:15:55.836Z,4.30
2024-04-08T07:18:22.898Z,4.07
2024-04-08T07:20:51.774Z,4.20
2024-04-08T07:23:18.565Z,3.47
2024-04-08T07:25:50.479Z,4.22
2024-04-08T07:28:17.354Z,4.40
2024-04-08T07:30:44.018Z,4.57
2024-04-08T07:33:10.744Z,4.07
2024-04-08T07:35:38.145Z,4.82
2024-04-08T07:38:05.145Z,4.30
2024-04-08T07:40:31.928Z,3.80
2024-04-08T07:42:58.517Z,3.78
2024-04-08T07:45:26.047Z,4.07
2024-04-08T07:47:52.791Z,4.53
2024-04-08T07:50:19.574Z,3.35
2024-04-08T07:52:49.274Z,3.75
2024-04-08T07:55:17.343Z,4.82
2024-04-08T07:57:44.018Z,3.78
2024-04-08T08:00:11.269Z,4.20
2024-04-08T08:02:37.973Z,3.78
2024-04-08T08:05:04.927Z,4.35
2024-04-08T08:07:32.110Z,3.95
2024-04-08T08:09:58.762Z,4.60
2024-04-08T08:12:25.568Z,4.32
2024-04-08T08:14:54.187Z,4.25
2024-04-08T08:17:27.373Z,4.50
2024-04-08T08:19:56.126Z,3.88
2024-04-08T08:22:32.587Z,3.85
2024-04-08T08:25:19.343Z,3.90
2024-04-08T08:28:07.604Z,3.55
2024-04-08T08:30:41.535Z,3.53
2024-04-08T08:33:08.567Z,3.60
2024-04-08T08:35:35.268Z,3.60
2024-04-08T08:38:01.960Z,3.13
2024-04-08T08:40:33.623Z,3.50
2024-04-08T08:43:00.312Z,2.75
2024-04-08T08:45:28.580Z,3.35
2024-04-08T08:47:58.609Z,2.80
2024-04-08T08:50:27.775Z,3.47
2024-04-08T08:52:54.398Z,2.10
2024-04-08T08:55:25.155Z,2.55
2024-04-08T08:57:54.900Z,2.88
2024-04-08T09:00:21.695Z,2.78
2024-04-08T09:02:49.666Z,2.70
2024-04-08T09:05:17.409Z,2.45
2024-04-08T09:07:44.106Z,2.72
2024-04-08T09:10:10.829Z,2.88
2024-04-08T09:12:42.449Z,2.70
2024-04-08T09:15:12.750Z,2.90
2024-04-08T09:17:39.842Z,2.90
2024-04-08T09:20:07.608Z,3.17
2024-04-08T09:22:34.284Z,3.08
2024-04-08T09:25:01.096Z,3.55
2024-04-08T09:27:27.756Z,3.33
2024-04-08T09:29:54.439Z,3.58
2024-04-08T09:32:21.215Z,3.90
2024-04-08T09:34:47.847Z,3.60
2024-04-08T09:37:15.393Z,3.78
2024-04-08T09:39:42.230Z,3.95
2024-04-08T09:42:13.632Z,4.13
2024-04-08T09:44:44.864Z,3.80
2024-04-08T09:47:14.162Z,3.20
2024-04-08T09:49:49.759Z,3.90
2024-04-08T09:52:17.669Z,3.63
2024-04-08T09:54:44.582Z,3.13
2024-04-08T09:57:17.942Z,3.05
2024-04-08T09:59:57.775Z,3.42
2024-04-08T10:02:31.586Z,3.88
2024-04-08T10:05:03.816Z,3.20
2024-04-08T10:07:49.865Z,3.92
2024-04-08T10:10:16.869Z,3.67
2024-04-08T10:12:43.643Z,3.50
2024-04-08T10:15:11.151Z,3.83
2024-04-08T10:20:44.832Z,3.53
2024-04-08T10:23:16.132Z,3.50
2024-04-08T10:25:47.207Z,3.38
2024-04-08T10:28:21.915Z,2.45
2024-04-08T10:30:54.052Z,2.92
2024-04-08T10:33:25.775Z,2.72
2024-04-08T10:36:21.665Z,2.80
2024-04-08T10:38:48.735Z,2.10
2024-04-08T10:41:21.298Z,2.22
2024-04-08T10:43:48.004Z,2.75
2024-04-08T10:46:20.118Z,2.70
2024-04-08T10:48:46.759Z,3.10
2024-04-08T10:51:17.861Z,3.05
2024-04-08T10:53:44.813Z,3.03
2024-04-08T10:56:11.513Z,3.10
2024-04-08T10:58:38.101Z,3.13
2024-04-08T11:01:05.649Z,3.10
2024-04-08T11:03:33.013Z,3.70
2024-04-08T11:05:59.820Z,3.50
2024-04-08T11:08:26.991Z,3.05
2024-04-08T11:10:54.400Z,3.25
2024-04-08T11:13:21.273Z,3.60
2024-04-08T11:15:50.909Z,3.20
2024-04-08T11:18:20.429Z,3.85
2024-04-08T11:20:47.667Z,3.40
2024-04-08T11:23:15.464Z,3.63
2024-04-08T11:25:42.141Z,3.88
2024-04-08T11:28:10.096Z,3.45
2024-04-08T11:30:38.826Z,3.97
2024-04-08T11:35:32.563Z,3.80
2024-04-08T11:38:07.111Z,3.40
2024-04-08T11:40:40.787Z,3.45
2024-04-08T11:43:07.473Z,3.70
2024-04-08T11:45:34.372Z,3.28
2024-04-08T11:48:01.198Z,3.17
2024-04-08T11:50:27.858Z,3.20
2024-04-08T11:52:54.532Z,3.97
2024-04-08T11:55:21.355Z,3.75
2024-04-08T11:57:50.226Z,3.58
2024-04-08T12:00:22.236Z,3.88
2024-04-08T12:02:54.870Z,4.05
2024-04-08T12:05:21.826Z,4.13
2024-04-08T12:07:48.477Z,4.35
2024-04-08T12:10:15.162Z,3.65
2024-04-08T12:12:41.992Z,4.25
2024-04-08T12:15:09.558Z,4.25
2024-04-08T12:17:36.398Z,4.88
2024-04-08T12:20:04.144Z,5.70
2024-04-08T12:22:30.837Z,5.68
2024-04-08T12:24:57.467Z,5.93
2024-04-08T12:27:29.214Z,6.05
2024-04-08T12:29:56.075Z,6.68
2024-04-08T12:32:23.729Z,6.47
2024-04-08T12:34:52.780Z,6.82
2024-04-08T12:37:20.622Z,6.75
2024-04-08T12:39:47.298Z,6.93
2024-04-08T12:42:13.944Z,7.75
2024-04-08T12:44:43.638Z,6.15
2024-04-08T12:47:12.922Z,5.80
2024-04-08T12:49:39.590Z,6.50
2024-04-08T12:52:06.659Z,6.20
2024-04-08T12:54:42.998Z,5.78
2024-04-08T12:57:12.404Z,6.70
2024-04-08T12:59:39.049Z,6.20
2024-04-08T13:02:05.813Z,5.90
2024-04-08T13:04:32.596Z,6.22
2024-04-08T13:07:03.643Z,6.25
2024-04-08T13:09:35.153Z,6.53
2024-04-08T13:12:02.300Z,6.70
2024-04-08T13:14:28.895Z,6.50
2024-04-08T13:16:55.523Z,5.90
2024-04-08T13:19:22.148Z,6.47
2024-04-08T13:21:48.728Z,7.00
2024-04-08T13:24:15.525Z,7.32
2024-04-08T13:26:43.824Z,7.93
2024-04-08T13:29:10.674Z,8.02
2024-04-08T13:31:39.058Z,8.48
2024-04-08T13:34:06.541Z,8.60
2024-04-08T13:36:33.554Z,10.38
2024-04-08T13:39:00.290Z,10.77
2024-04-08T13:41:26.876Z,9.93
2024-04-08T13:43:53.641Z,11.13
2024-04-08T13:46:20.242Z,10.40
2024-04-08T13:48:47.046Z,12.05
2024-04-08T13:51:14.720Z,11.75
2024-04-08T13:53:45.853Z,10.52
2024-04-08T13:56:12.563Z,11.23
2024-04-08T13:58:39.179Z,10.73
2024-04-08T14:01:07.447Z,11.57
2024-04-08T14:03:46.675Z,9.77
2024-04-08T14:06:14.126Z,9.27
2024-04-08T14:08:41.008Z,10.10
2024-04-08T14:11:10.522Z,8.60
2024-04-08T14:13:37.670Z,7.70
2024-04-08T14:16:08.284Z,7.13
2024-04-08T14:18:35.228Z,7.00
2024-04-08T14:21:01.893Z,6.90
2024-04-08T14:23:28.540Z,6.22
2024-04-08T14:25:57.482Z,6.03
2024-04-08T14:28:26.206Z,6.10
2024-04-08T14:30:52.880Z,5.43
2024-04-08T14:33:19.861Z,5.45
2024-04-08T14:35:46.694Z,5.60
2024-04-08T14:38:38.217Z,5.22
2024-04-08T14:41:01.183Z,5.55
2024-04-08T14:43:33.301Z,5.40
2024-04-08T14:46:06.683Z,4.65
2024-04-08T14:48:33.486Z,4.68
2024-04-08T14:51:00.299Z,4.43
2024-04-08T14:53:27.230Z,4.93
2024-04-08T14:55:54.492Z,4.30
2024-04-08T14:58:22.432Z,4.45
2024-04-08T15:00:49.840Z,3.92
2024-04-08T15:03:16.611Z,3.63
2024-04-08T15:05:44.607Z,3.85
2024-04-08T15:08:15.713Z,2.95
2024-04-08T15:10:42.295Z,4.10
2024-04-08T15:13:08.934Z,3.40
2024-04-08T15:15:35.584Z,3.53
2024-04-08T15:18:02.231Z,3.30
2024-04-08T15:20:29.591Z,3.00
2024-04-08T15:22:57.547Z,3.20
2024-04-08T15:25:24.453Z,3.08
2024-04-08T15:27:51.071Z,3.30
2024-04-08T15:30:17.859Z,2.75
2024-04-08T15:32:44.676Z,3.17
2024-04-08T15:35:28.478Z,2.60
2024-04-08T15:37:55.600Z,3.03
2024-04-08T15:40:22.490Z,2.47
2024-04-08T15:42:49.170Z,2.80
2024-04-08T15:45:18.816Z,2.55
2024-04-08T15:47:46.079Z,2.22
2024-04-08T15:50:12.850Z,2.25
2024-04-08T15:52:39.416Z,2.22
2024-04-08T15:55:06.128Z,2.20
2024-04-08T15:57:35.365Z,2.22
2024-04-08T16:00:02.160Z,2.20
2024-04-08T16:02:28.847Z,2.38
2024-04-08T16:04:56.402Z,2.88
2024-04-08T16:07:23.165Z,2.33
2024-04-08T16:09:49.697Z,2.42
2024-04-08T16:12:16.966Z,2.58
2024-04-08T16:14:43.893Z,2.15
2024-04-08T16:17:11.960Z,2.30
2024-04-08T16:19:41.199Z,2.38
2024-04-08T16:22:07.767Z,2.65
2024-04-08T16:24:34.587Z,2.47
2024-04-08T16:27:04.594Z,2.55
2024-04-08T16:29:31.311Z,2.63
2024-04-08T16:31:57.929Z,3.03
2024-04-08T16:34:24.726Z,3.15
2024-04-08T16:36:51.369Z,2.90
2024-04-08T16:39:19.613Z,3.03
2024-04-08T16:41:46.910Z,3.15
2024-04-08T16:44:13.545Z,2.80
2024-04-08T16:46:40.122Z,3.67
2024-04-08T16:49:06.750Z,3.85
2024-04-08T16:51:34.999Z,3.20
2024-04-08T16:54:01.722Z,3.20
2024-04-08T16:56:31.783Z,3.25
2024-04-08T16:58:58.334Z,3.22
2024-04-08T17:01:34.244Z,3.03
2024-04-08T17:04:06.426Z,3.20
2024-04-08T17:06:50.087Z,3.20
2024-04-08T17:09:17.992Z,4.22
2024-04-08T17:11:46.792Z,4.00
2024-04-08T17:14:13.375Z,4.25
2024-04-08T17:16:39.999Z,4.18
2024-04-08T17:19:06.959Z,3.88
2024-04-08T17:21:36.721Z,3.38
2024-04-08T17:24:04.999Z,3.58
2024-04-08T17:26:31.573Z,3.25
2024-04-08T17:28:58.100Z,3.53
2024-04-08T17:31:24.659Z,3.70
2024-04-08T17:33:51.474Z,3.30
2024-04-08T17:36:18.142Z,3.40
2024-04-08T17:38:44.795Z,2.38
2024-04-08T17:41:13.891Z,4.07
2024-04-08T17:43:42.116Z,3.40
2024-04-08T17:46:09.414Z,3.88
2024-04-08T17:48:37.758Z,3.80
2024-04-08T17:51:08.918Z,3.60
2024-04-08T17:53:36.828Z,3.88
2024-04-08T17:56:09.802Z,4.35
2024-04-08T17:58:37.714Z,4.55
2024-04-08T18:01:08.046Z,4.88
2024-04-08T18:03:36.294Z,5.40
2024-04-08T18:06:17.242Z,4.65
2024-04-08T18:08:46.109Z,5.40
2024-04-08T18:11:13.824Z,5.57
2024-04-08T18:13:41.715Z,4.85
2024-04-08T18:16:16.898Z,5.70
2024-04-08T18:18:46.269Z,5.32
2024-04-08T18:21:13.214Z,6.05
2024-04-08T18:23:42.241Z,6.18
2024-04-08T18:26:16.740Z,5.25
2024-04-08T18:28:45.595Z,5.47
2024-04-08T18:31:14.014Z,6.05
2024-04-08T18:33:43.385Z,5.65
2024-04-08T18:36:10.295Z,6.38
2024-04-08T18:38:37.129Z,5.85
2024-04-08T18:41:11.659Z,5.80
2024-04-08T18:43:39.878Z,6.13
2024-04-08T18:46:10.499Z,6.05
2024-04-08T18:48:38.185Z,5.47
2024-04-08T18:51:05.608Z,5.45
2024-04-08T18:53:33.636Z,5.75
2024-04-08T18:56:00.399Z,5.60
2024-04-08T18:58:26.988Z,6.40
2024-04-08T19:00:53.717Z,6.15
2024-04-08T19:03:21.128Z,6.57
2024-04-08T19:05:50.118Z,7.38
2024-04-08T19:08:17.336Z,7.32
2024-04-08T19:10:43.984Z,7.07
2024-04-08T19:13:13.323Z,6.93
2024-04-08T19:15:41.803Z,8.07
2024-04-08T19:18:08.665Z,7.60
2024-04-08T19:20:38.865Z,7.80
2024-04-08T19:23:05.486Z,7.15
2024-04-08T19:25:32.176Z,8.27
2024-04-08T19:27:59.169Z,7.28
2024-04-08T19:30:26.196Z,7.53
2024-04-08T19:32:54.278Z,8.32
2024-04-08T19:35:20.985Z,8.23
2024-04-08T19:37:47.700Z,7.70
2024-04-08T19:40:16.896Z,8.02
2024-04-08T19:42:43.567Z,8.40
2024-04-08T19:45:19.023Z,8.25
2024-04-08T19:47:49.230Z,7.70
2024-04-08T19:50:16.309Z,8.98
2024-04-08T19:53:01.481Z,8.07
2024-04-08T19:55:28.400Z,7.72
2024-04-08T19:57:54.967Z,8.95
2024-04-08T20:00:22.697Z,9.13
2024-04-08T20:02:49.420Z,8.15
2024-04-08T20:05:21.790Z,8.50
2024-04-08T20:07:48.459Z,8.40
2024-04-08T20:10:15.034Z,8.57
2024-04-08T20:12:41.690Z,8.70
2024-04-08T20:15:08.630Z,8.38
2024-04-08T20:17:38.827Z,9.30
2024-04-08T20:20:08.911Z,8.68
2024-04-08T20:22:35.521Z,8.88
2024-04-08T20:25:02.087Z,8.20
2024-04-08T20:27:37.980Z,8.80
2024-04-08T20:30:05.328Z,8.57
2024-04-08T20:32:32.091Z,7.90
2024-04-08T20:34:58.905Z,8.38
2024-04-08T20:37:25.530Z,8.02
2024-04-08T20:39:53.954Z,8.82
2024-04-08T20:42:20.639Z,8.73
2024-04-08T20:44:47.538Z,9.05
2024-04-08T20:47:19.162Z,8.20
2024-04-08T20:49:47.950Z,8.30
2024-04-08T20:52:15.847Z,9.05
2024-04-08T20:54:43.466Z,9.50
2024-04-08T20:57:10.088Z,9.50
2024-04-08T20:59:36.695Z,8.50
2024-04-08T21:02:03.378Z,8.82
2024-04-08T21:04:31.551Z,9.63
2024-04-08T21:06:58.185Z,9.23
2024-04-08T21:09:29.362Z,9.88
2024-04-08T21:11:56.102Z,9.05
2024-04-08T21:14:22.818Z,8.75
2024-04-08T21:16:49.387Z,8.57
2024-04-08T21:19:19.049Z,8.52
2024-04-08T21:21:45.771Z,9.20
2024-04-08T21:24:12.514Z,9.93
2024-04-08T21:26:39.134Z,8.75
2024-04-08T21:29:05.810Z,9.57
2024-04-08T21:31:32.463Z,9.82
2024-04-08T21:33:59.375Z,8.60
2024-04-08T21:36:26.098Z,8.88
2024-04-08T21:38:53.811Z,9.40
2024-04-08T21:41:21.491Z,9.18
2024-04-08T21:43:48.127Z,9.50
2024-04-08T21:46:17.761Z,9.77
2024-04-08T21:48:44.711Z,8.43
2024-04-08T21:51:17.957Z,8.95
2024-04-08T21:53:45.090Z,9.15
2024-04-08T21:56:11.824Z,8.88
2024-04-08T21:58:41.113Z,8.88
2024-04-08T22:01:09.760Z,9.55
2024-04-08T22:03:37.431Z,8.98
2024-04-08T22:06:12.112Z,9.10
2024-04-08T22:08:41.794Z,8.40
2024-04-08T22:11:12.934Z,9.23
2024-04-08T22:13:41.969Z,9.85
2024-04-08T22:16:08.958Z,9.48
2024-04-08T22:18:37.264Z,8.45
2024-04-08T22:21:04.101Z,9.25
2024-04-08T22:23:30.812Z,8.77
2024-04-08T22:25:57.381Z,8.90
2024-04-08T22:28:25.611Z,8.57
2024-04-08T22:30:52.264Z,8.75
2024-04-08T22:33:19.060Z,9.55
2024-04-08T22:35:46.018Z,9.48
2024-04-08T22:38:12.609Z,9.50
2024-04-08T22:40:41.102Z,9.20
2024-04-08T22:43:07.699Z,8.65
2024-04-08T22:45:34.350Z,9.77
2024-04-08T22:48:01.065Z,8.55
2024-04-08T22:50:27.844Z,9.32
2024-04-08T22:52:54.400Z,9.68
2024-04-08T22:55:22.259Z,9.25
2024-04-08T22:57:48.860Z,8.68
2024-04-08T23:00:15.920Z,8.18
2024-04-08T23:02:47.245Z,8.75
2024-04-08T23:05:14.532Z,9.18
2024-04-08T23:07:41.157Z,10.95
2024-04-08T23:10:08.348Z,10.40
2024-04-08T23:12:35.234Z,10.00
2024-04-08T23:15:02.231Z,9.30
2024-04-08T23:17:29.065Z,9.82
2024-04-08T23:19:55.723Z,9.77
2024-04-08T23:22:22.516Z,10.05
2024-04-08T23:24:49.168Z,10.13
2024-04-08T23:27:15.787Z,8.63
2024-04-08T23:29:42.424Z,6.88
2024-04-08T23:32:10.252Z,7.03
2024-04-08T23:34:37.425Z,6.20
2024-04-08T23:37:04.491Z,6.70
2024-04-08T23:39:31.249Z,6.47
2024-04-08T23:41:57.946Z,6.15
2024-04-08T23:44:24.879Z,6.35
2024-04-08T23:46:51.480Z,6.55
2024-04-08T23:49:18.128Z,6.40
2024-04-08T23:51:47.441Z,7.50
2024-04-08T23:54:14.191Z,6.80
2024-04-08T23:56:40.834Z,6.45
2024-04-08T23:59:07.897Z,6.38
